| time (UTC) | temp F | wind direction | speed MPH | gust MPH | rain 1hr in | rain 24hr in | rain mn in | humidity % | barometer mb |
| 20260508115514 | 44 | 0 | 0.0 | 4.0 | 0.00 | 0.09 | 0.09 | 94 | 1012.1 |
| 20260508115011 | 43 | 0 | 0.0 | 4.0 | 0.00 | 0.09 | 0.09 | 94 | 1012.1 |
| 20260508114530 | 43 | 0 | 0.0 | 3.0 | 0.00 | 0.09 | 0.09 | 95 | 1012.0 |
| 20260508114012 | 43 | 273 | 0.0 | 3.0 | 0.00 | 0.09 | 0.09 | 95 | 1012.1 |
| 20260508113512 | 43 | 273 | 0.0 | 3.0 | 0.00 | 0.09 | 0.09 | 95 | 1012.1 |
| 20260508113028 | 42 | 0 | 0.0 | 3.0 | 0.01 | 0.09 | 0.09 | 95 | 1012.1 |
| 20260508112511 | 42 | 0 | 0.0 | 3.0 | 0.01 | 0.09 | 0.09 | 95 | 1012.0 |
| 20260508112010 | 42 | 0 | 0.0 | 1.0 | 0.01 | 0.09 | 0.09 | 96 | 1012.0 |
| 20260508111528 | 41 | 0 | 0.0 | 1.0 | 0.01 | 0.09 | 0.09 | 95 | 1012.0 |
| 20260508111011 | 41 | 0 | 0.0 | 0.0 | 0.01 | 0.09 | 0.09 | 95 | 1012.0 |
| 20260508110514 | 41 | 0 | 0.0 | 0.0 | 0.01 | 0.09 | 0.09 | 95 | 1011.9 |
| 20260508110036 | 41 | 0 | 0.0 | 1.0 | 0.01 | 0.09 | 0.09 | 95 | 1011.9 |
| 20260508105516 | 40 | 0 | 0.0 | 1.0 | 0.01 | 0.09 | 0.09 | 95 | 1011.7 |
| 20260508105013 | 40 | 0 | 0.0 | 0.0 | 0.01 | 0.09 | 0.09 | 95 | 1011.5 |
| 20260508104528 | 40 | 0 | 0.0 | 3.0 | 0.01 | 0.09 | 0.09 | 95 | 1011.5 |
| 20260508104012 | 40 | 0 | 0.0 | 3.0 | 0.01 | 0.09 | 0.09 | 95 | 1011.4 |
| 20260508103510 | 39 | 0 | 0.0 | 0.0 | 0.01 | 0.09 | 0.09 | 95 | 1011.4 |
| 20260508103031 | 38 | 0 | 0.0 | 0.0 | 0.00 | 0.08 | 0.08 | 94 | 1011.4 |
| 20260508102512 | 38 | 0 | 0.0 | 0.0 | 0.00 | 0.08 | 0.08 | 94 | 1011.5 |
| 20260508102012 | 38 | 0 | 0.0 | 0.0 | 0.00 | 0.08 | 0.08 | 94 | 1011.4 |
| 20260508101534 | 38 | 0 | 0.0 | 0.0 | 0.00 | 0.08 | 0.08 | 94 | 1011.3 |
| 20260508101016 | 38 | 0 | 0.0 | 0.0 | 0.00 | 0.08 | 0.08 | 94 | 1011.4 |
| 20260508100513 | 39 | 0 | 0.0 | 0.0 | 0.00 | 0.08 | 0.08 | 94 | 1011.3 |
| 20260508100027 | 38 | 0 | 0.0 | 1.0 | 0.00 | 0.08 | 0.08 | 94 | 1011.3 |
| 20260508095514 | 38 | 0 | 0.0 | 1.0 | 0.00 | 0.08 | 0.08 | 94 | 1011.1 |
| 20260508095011 | 38 | 0 | 0.0 | 0.0 | 0.00 | 0.08 | 0.08 | 93 | 1011.1 |
| 20260508094530 | 38 | 0 | 0.0 | 0.0 | 0.00 | 0.08 | 0.08 | 93 | 1011.2 |
| 20260508094011 | 38 | 0 | 0.0 | 0.0 | 0.00 | 0.08 | 0.08 | 93 | 1011.1 |
| 20260508093512 | 38 | 0 | 0.0 | 0.0 | 0.00 | 0.08 | 0.08 | 92 | 1011.2 |
| 20260508093032 | 38 | 0 | 0.0 | 0.0 | 0.00 | 0.08 | 0.08 | 92 | 1011.1 |
| 20260508092510 | 38 | 0 | 0.0 | 0.0 | 0.00 | 0.08 | 0.08 | 92 | 1011.1 |
| 20260508092013 | 39 | 0 | 0.0 | 0.0 | 0.00 | 0.08 | 0.08 | 92 | 1011.1 |
| 20260508091530 | 39 | 0 | 0.0 | 0.0 | 0.00 | 0.08 | 0.08 | 92 | 1011.1 |
| 20260508091013 | 39 | 0 | 0.0 | 0.0 | 0.00 | 0.08 | 0.08 | 92 | 1011.0 |
| 20260508090510 | 40 | 0 | 0.0 | 0.0 | 0.00 | 0.08 | 0.08 | 92 | 1011.0 |
| 20260508090028 | 40 | 0 | 0.0 | 0.0 | 0.00 | 0.08 | 0.08 | 92 | 1011.0 |
| 20260508085514 | 40 | 0 | 0.0 | 0.0 | 0.00 | 0.09 | 0.08 | 92 | 1010.9 |
| 20260508085010 | 41 | 0 | 0.0 | 0.0 | 0.00 | 0.09 | 0.08 | 92 | 1010.9 |
| 20260508084528 | 41 | 0 | 0.0 | 0.0 | 0.00 | 0.09 | 0.08 | 92 | 1010.9 |
| 20260508084013 | 41 | 0 | 0.0 | 0.0 | 0.00 | 0.09 | 0.08 | 92 | 1010.9 |
| 20260508083515 | 42 | 0 | 0.0 | 0.0 | 0.00 | 0.09 | 0.08 | 92 | 1010.8 |
| 20260508083112 | 42 | 0 | 0.0 | 0.0 | 0.01 | 0.09 | 0.08 | 93 | 1010.8 |
| 20260508082513 | 42 | 0 | 0.0 | 0.0 | 0.01 | 0.09 | 0.08 | 93 | 1010.7 |
| 20260508082016 | 43 | 0 | 0.0 | 0.0 | 0.01 | 0.09 | 0.08 | 93 | 1010.6 |
| 20260508081530 | 43 | 0 | 0.0 | 0.0 | 0.01 | 0.09 | 0.08 | 93 | 1010.6 |
| 20260508081014 | 43 | 0 | 0.0 | 0.0 | 0.01 | 0.09 | 0.08 | 93 | 1010.7 |
| 20260508080511 | 43 | 0 | 0.0 | 1.0 | 0.01 | 0.09 | 0.08 | 93 | 1010.6 |
| 20260508080031 | 43 | 0 | 0.0 | 1.0 | 0.01 | 0.09 | 0.08 | 93 | 1010.7 |
| 20260508075511 | 43 | 0 | 0.0 | 1.0 | 0.01 | 0.11 | 0.08 | 93 | 1010.6 |
| 20260508075013 | 43 | 0 | 0.0 | 2.0 | 0.01 | 0.11 | 0.08 | 92 | 1010.5 |
| 20260508074533 | 43 | 0 | 0.0 | 2.0 | 0.01 | 0.11 | 0.08 | 93 | 1010.5 |
| 20260508074010 | 43 | 293 | 0.0 | 2.0 | 0.01 | 0.11 | 0.08 | 93 | 1010.6 |
| 20260508073513 | 43 | 0 | 0.0 | 1.0 | 0.01 | 0.11 | 0.08 | 93 | 1010.6 |
| 20260508073033 | 43 | 0 | 0.0 | 2.0 | 0.00 | 0.10 | 0.07 | 93 | 1010.8 |
| 20260508072511 | 43 | 0 | 0.0 | 2.0 | 0.00 | 0.10 | 0.07 | 93 | 1010.9 |
| 20260508072012 | 43 | 0 | 0.0 | 1.0 | 0.00 | 0.10 | 0.07 | 93 | 1010.9 |
| 20260508071532 | 44 | 0 | 0.0 | 0.0 | 0.00 | 0.10 | 0.07 | 93 | 1010.9 |
| 20260508071011 | 43 | 0 | 0.0 | 0.0 | 0.00 | 0.10 | 0.07 | 93 | 1010.9 |
| 20260508070511 | 43 | 0 | 0.0 | 0.0 | 0.00 | 0.10 | 0.07 | 92 | 1010.7 |
| 20260508070030 | 44 | 0 | 0.0 | 1.0 | 0.00 | 0.10 | 0.07 | 92 | 1010.9 |
| 20260508065513 | 44 | 0 | 0.0 | 1.0 | 0.01 | 0.11 | 0.07 | 92 | 1011.1 |
| 20260508065013 | 44 | 0 | 0.0 | 3.0 | 0.01 | 0.11 | 0.07 | 92 | 1011.1 |
| 20260508064545 | 44 | 0 | 0.0 | 3.0 | 0.01 | 0.11 | 0.07 | 92 | 1011.2 |
| 20260508064010 | 44 | 306 | 0.0 | 3.0 | 0.03 | 0.11 | 0.07 | 91 | 1011.1 |
| 20260508063513 | 44 | 0 | 0.0 | 0.0 | 0.05 | 0.11 | 0.07 | 91 | 1010.9 |
| 20260508063033 | 44 | 0 | 0.0 | 0.0 | 0.07 | 0.11 | 0.07 | 91 | 1010.9 |
| 20260508062513 | 44 | 0 | 0.0 | 0.0 | 0.07 | 0.11 | 0.07 | 90 | 1011.0 |
| 20260508062013 | 44 | 0 | 0.0 | 2.0 | 0.07 | 0.11 | 0.07 | 89 | 1011.1 |
| 20260508061532 | 44 | 0 | 0.0 | 2.0 | 0.07 | 0.11 | 0.07 | 89 | 1011.1 |
| 20260508061011 | 44 | 0 | 0.0 | 5.0 | 0.07 | 0.11 | 0.07 | 88 | 1011.3 |
| 20260508060510 | 44 | 0 | 0.0 | 5.0 | 0.07 | 0.11 | 0.07 | 87 | 1011.4 |
| 20260508060030 | 45 | 307 | 0.0 | 9.0 | 0.07 | 0.11 | 0.07 | 87 | 1011.4 |
| 20260508055514 | 45 | 0 | 0.0 | 9.0 | 0.06 | 0.11 | 0.06 | 86 | 1011.5 |
| 20260508055010 | 45 | 257 | 1.0 | 7.0 | 0.06 | 0.11 | 0.06 | 84 | 1011.5 |
| 20260508054530 | 45 | 316 | 2.0 | 7.0 | 0.05 | 0.10 | 0.05 | 85 | 1011.4 |
| 20260508054014 | 46 | 0 | 2.0 | 8.0 | 0.03 | 0.08 | 0.03 | 83 | 1011.4 |
| 20260508053513 | 46 | 341 | 4.0 | 8.0 | 0.01 | 0.06 | 0.01 | 82 | 1011.5 |
| 20260508053027 | 46 | 330 | 2.0 | 8.0 | 0.00 | 0.05 | 0.00 | 81 | 1011.1 |
| 20260508052515 | 46 | 313 | 1.0 | 3.0 | 0.00 | 0.05 | 0.00 | 82 | 1010.7 |
| 20260508052012 | 45 | 0 | 0.0 | 2.0 | 0.00 | 0.05 | 0.00 | 82 | 1010.4 |
| 20260508051531 | 45 | 0 | 0.0 | 1.0 | 0.00 | 0.05 | 0.00 | 82 | 1010.1 |
| 20260508051011 | 45 | 0 | 0.0 | 0.0 | 0.00 | 0.05 | 0.00 | 85 | 1009.7 |
| 20260508050510 | 45 | 0 | 0.0 | 0.0 | 0.00 | 0.05 | 0.00 | 85 | 1009.6 |
| 20260508050027 | 45 | 0 | 0.0 | 2.0 | 0.00 | 0.05 | 0.00 | 85 | 1009.3 |
| 20260508045509 | 44 | 0 | 0.0 | 3.0 | 0.00 | 0.05 | 0.00 | 83 | 1009.2 |
| 20260508045010 | 44 | 0 | 0.0 | 3.0 | 0.00 | 0.05 | 0.00 | 86 | 1009.2 |
| 20260508044528 | 44 | 0 | 0.0 | 1.0 | 0.00 | 0.05 | 0.00 | 86 | 1008.9 |
| 20260508044012 | 44 | 0 | 0.0 | 1.0 | 0.00 | 0.05 | 0.00 | 86 | 1009.2 |
| 20260508043512 | 44 | 0 | 0.0 | 0.0 | 0.00 | 0.05 | 0.00 | 86 | 1009.3 |
| 20260508043033 | 44 | 0 | 0.0 | 0.0 | 0.00 | 0.05 | 0.00 | 86 | 1009.4 |
| 20260508042512 | 44 | 0 | 0.0 | 0.0 | 0.00 | 0.05 | 0.00 | 86 | 1009.3 |
| 20260508042011 | 43 | 0 | 0.0 | 0.0 | 0.00 | 0.05 | 0.00 | 87 | 1009.3 |
| 20260508041529 | 43 | 0 | 0.0 | 0.0 | 0.00 | 0.05 | 0.00 | 87 | 1009.1 |
| 20260508041010 | 43 | 0 | 0.0 | 0.0 | 0.00 | 0.05 | 0.00 | 87 | 1009.0 |
| 20260508040511 | 43 | 0 | 0.0 | 0.0 | 0.00 | 0.05 | 0.00 | 87 | 1008.8 |
| 20260508040035 | 43 | 0 | 0.0 | 0.0 | 0.00 | 0.05 | 0.00 | 86 | 1008.8 |
| 20260508035516 | 43 | 0 | 0.0 | 0.0 | 0.00 | 0.05 | 0.05 | 87 | 1008.8 |
| 20260508035014 | 43 | 0 | 0.0 | 2.0 | 0.00 | 0.05 | 0.05 | 87 | 1008.7 |
| 20260508034530 | 43 | 0 | 0.0 | 2.0 | 0.00 | 0.05 | 0.05 | 86 | 1008.8 |
| 20260508034010 | 43 | 0 | 0.0 | 2.0 | 0.00 | 0.05 | 0.05 | 86 | 1009.1 |
| 20260508033510 | 43 | 0 | 0.0 | 0.0 | 0.00 | 0.05 | 0.05 | 86 | 1009.0 |
| 20260508033027 | 43 | 0 | 0.0 | 0.0 | 0.00 | 0.05 | 0.05 | 86 | 1009.0 |
| 20260508032511 | 42 | 0 | 0.0 | 0.0 | 0.00 | 0.05 | 0.05 | 86 | 1008.9 |
| 20260508032012 | 42 | 0 | 0.0 | 0.0 | 0.00 | 0.05 | 0.05 | 85 | 1009.1 |
| 20260508031530 | 42 | 0 | 0.0 | 0.0 | 0.00 | 0.05 | 0.05 | 85 | 1009.1 |
| 20260508031010 | 42 | 0 | 0.0 | 0.0 | 0.00 | 0.05 | 0.05 | 85 | 1009.1 |
| 20260508030511 | 42 | 0 | 0.0 | 0.0 | 0.00 | 0.05 | 0.05 | 85 | 1009.0 |
| 20260508030034 | 42 | 0 | 0.0 | 0.0 | 0.00 | 0.05 | 0.05 | 86 | 1009.0 |
| 20260508025512 | 42 | 0 | 0.0 | 0.0 | 0.00 | 0.05 | 0.05 | 84 | 1009.0 |
| 20260508025012 | 42 | 0 | 0.0 | 0.0 | 0.00 | 0.05 | 0.05 | 84 | 1009.0 |
| 20260508024530 | 42 | 0 | 0.0 | 0.0 | 0.00 | 0.05 | 0.05 | 83 | 1009.0 |
| 20260508024012 | 42 | 0 | 0.0 | 0.0 | 0.00 | 0.05 | 0.05 | 83 | 1009.0 |
| 20260508023511 | 42 | 0 | 0.0 | 0.0 | 0.00 | 0.05 | 0.05 | 83 | 1009.0 |
| 20260508023035 | 43 | 0 | 0.0 | 0.0 | 0.00 | 0.05 | 0.05 | 82 | 1009.0 |
| 20260508022510 | 43 | 0 | 0.0 | 0.0 | 0.00 | 0.05 | 0.05 | 82 | 1009.0 |
| 20260508022013 | 43 | 0 | 0.0 | 0.0 | 0.00 | 0.05 | 0.05 | 82 | 1009.0 |
| 20260508021531 | 43 | 0 | 0.0 | 0.0 | 0.00 | 0.05 | 0.05 | 82 | 1009.0 |
| 20260508021012 | 43 | 0 | 0.0 | 0.0 | 0.00 | 0.05 | 0.05 | 81 | 1008.8 |
| 20260508020511 | 43 | 0 | 0.0 | 0.0 | 0.00 | 0.05 | 0.05 | 81 | 1008.9 |
| 20260508020028 | 43 | 0 | 0.0 | 0.0 | 0.00 | 0.05 | 0.05 | 81 | 1008.9 |
| 20260508015515 | 43 | 0 | 0.0 | 0.0 | 0.00 | 0.05 | 0.05 | 79 | 1008.9 |
| 20260508015010 | 43 | 0 | 0.0 | 0.0 | 0.00 | 0.05 | 0.05 | 77 | 1008.8 |
| 20260508014534 | 43 | 0 | 0.0 | 0.0 | 0.00 | 0.05 | 0.05 | 77 | 1008.8 |
| 20260508014013 | 44 | 0 | 0.0 | 0.0 | 0.00 | 0.05 | 0.05 | 77 | 1008.7 |
| 20260508013511 | 44 | 0 | 0.0 | 0.0 | 0.00 | 0.05 | 0.05 | 76 | 1008.8 |
| 20260508013030 | 44 | 0 | 0.0 | 0.0 | 0.00 | 0.05 | 0.05 | 77 | 1008.7 |
| 20260508012515 | 45 | 0 | 0.0 | 0.0 | 0.00 | 0.05 | 0.05 | 77 | 1008.7 |
| 20260508012011 | 45 | 0 | 0.0 | 0.0 | 0.00 | 0.05 | 0.05 | 75 | 1008.8 |
| 20260508011536 | 45 | 0 | 0.0 | 0.0 | 0.00 | 0.05 | 0.05 | 75 | 1008.8 |
| 20260508011011 | 46 | 0 | 0.0 | 0.0 | 0.00 | 0.05 | 0.05 | 75 | 1008.9 |
| 20260508010512 | 46 | 0 | 0.0 | 0.0 | 0.00 | 0.05 | 0.05 | 73 | 1008.9 |
| 20260508010033 | 46 | 0 | 0.0 | 0.0 | 0.00 | 0.05 | 0.05 | 72 | 1008.7 |
| 20260508005520 | 47 | 0 | 0.0 | 0.0 | 0.00 | 0.06 | 0.05 | 70 | 1008.7 |
| 20260508005013 | 47 | 0 | 0.0 | 0.0 | 0.00 | 0.06 | 0.05 | 69 | 1008.6 |
| 20260508004529 | 47 | 0 | 0.0 | 0.0 | 0.00 | 0.06 | 0.05 | 71 | 1008.6 |
| 20260508004012 | 48 | 0 | 0.0 | 0.0 | 0.00 | 0.06 | 0.05 | 68 | 1008.4 |
| 20260508003510 | 48 | 0 | 0.0 | 0.0 | 0.00 | 0.06 | 0.05 | 68 | 1008.3 |
| 20260508003037 | 48 | 0 | 0.0 | 0.0 | 0.00 | 0.06 | 0.05 | 68 | 1008.3 |
| 20260508002513 | 49 | 0 | 0.0 | 0.0 | 0.00 | 0.06 | 0.05 | 67 | 1008.3 |
| 20260508002010 | 50 | 0 | 0.0 | 0.0 | 0.00 | 0.06 | 0.05 | 66 | 1008.2 |
| 20260508001536 | 50 | 0 | 0.0 | 0.0 | 0.00 | 0.06 | 0.05 | 65 | 1008.1 |
| 20260508001011 | 51 | 0 | 0.0 | 0.0 | 0.00 | 0.06 | 0.05 | 65 | 1008.1 |
| 20260508000513 | 52 | 0 | 0.0 | 1.0 | 0.00 | 0.06 | 0.05 | 61 | 1008.0 |
| 20260508000029 | 52 | 0 | 0.0 | 1.0 | 0.00 | 0.06 | 0.05 | 62 | 1008.0 |
| 20260507235512 | 53 | 317 | 0.0 | 0.0 | 0.00 | 0.06 | 0.05 | 63 | 1007.8 |
| 20260507235017 | 54 | 0 | 0.0 | 0.0 | 0.00 | 0.06 | 0.05 | 58 | 1007.8 |
| 20260507234528 | 55 | 0 | 0.0 | 2.0 | 0.00 | 0.06 | 0.05 | 56 | 1007.9 |
| 20260507234013 | 55 | 0 | 0.0 | 3.0 | 0.00 | 0.06 | 0.05 | 51 | 1008.0 |
| 20260507233513 | 56 | 0 | 0.0 | 3.0 | 0.00 | 0.06 | 0.05 | 49 | 1008.0 |
| 20260507233032 | 56 | 317 | 0.0 | 3.0 | 0.00 | 0.06 | 0.05 | 49 | 1007.9 |
| 20260507232515 | 57 | 318 | 0.0 | 4.0 | 0.00 | 0.06 | 0.05 | 46 | 1007.9 |
| 20260507232010 | 57 | 0 | 0.0 | 4.0 | 0.00 | 0.06 | 0.05 | 45 | 1007.7 |
| 20260507231530 | 57 | 326 | 0.0 | 8.0 | 0.00 | 0.06 | 0.05 | 45 | 1007.7 |
| 20260507231010 | 58 | 331 | 2.0 | 8.0 | 0.00 | 0.06 | 0.05 | 44 | 1007.7 |
| 20260507230510 | 58 | 328 | 0.0 | 9.0 | 0.00 | 0.06 | 0.05 | 46 | 1007.7 |
| 20260507230029 | 59 | 0 | 1.0 | 9.0 | 0.00 | 0.06 | 0.05 | 44 | 1007.8 |
| 20260507225513 | 59 | 309 | 0.0 | 6.0 | 0.00 | 0.06 | 0.05 | 44 | 1007.6 |
| 20260507225017 | 59 | 308 | 3.0 | 6.0 | 0.00 | 0.06 | 0.05 | 41 | 1007.5 |
| 20260507224530 | 59 | 0 | 1.0 | 8.0 | 0.00 | 0.06 | 0.05 | 41 | 1007.4 |
| 20260507224012 | 59 | 267 | 1.0 | 12.0 | 0.00 | 0.06 | 0.05 | 43 | 1007.3 |
| 20260507223514 | 59 | 320 | 3.0 | 12.0 | 0.00 | 0.06 | 0.05 | 42 | 1007.5 |
| 20260507223030 | 60 | 325 | 5.0 | 12.0 | 0.00 | 0.06 | 0.05 | 42 | 1007.5 |
| 20260507222513 | 60 | 321 | 3.0 | 11.0 | 0.00 | 0.06 | 0.05 | 42 | 1007.6 |
| 20260507222014 | 60 | 317 | 3.0 | 11.0 | 0.00 | 0.06 | 0.05 | 42 | 1007.6 |
| 20260507221531 | 60 | 336 | 3.0 | 9.0 | 0.00 | 0.06 | 0.05 | 41 | 1007.7 |
| 20260507221012 | 60 | 320 | 3.0 | 9.0 | 0.00 | 0.06 | 0.05 | 41 | 1007.7 |
| 20260507220512 | 59 | 336 | 3.0 | 10.0 | 0.00 | 0.06 | 0.05 | 46 | 1007.8 |
| 20260507220029 | 59 | 314 | 3.0 | 10.0 | 0.00 | 0.06 | 0.05 | 43 | 1007.7 |
| 20260507215512 | 59 | 315 | 5.0 | 10.0 | 0.00 | 0.06 | 0.05 | 43 | 1007.7 |
| 20260507215010 | 58 | 326 | 3.0 | 10.0 | 0.00 | 0.06 | 0.05 | 45 | 1007.8 |
| 20260507214530 | 58 | 334 | 1.0 | 10.0 | 0.00 | 0.06 | 0.05 | 47 | 1007.8 |
| 20260507214011 | 58 | 297 | 2.0 | 10.0 | 0.00 | 0.06 | 0.05 | 47 | 1007.7 |
| 20260507213515 | 58 | 321 | 3.0 | 13.0 | 0.00 | 0.06 | 0.05 | 45 | 1007.7 |
| 20260507213031 | 59 | 317 | 5.0 | 13.0 | 0.00 | 0.06 | 0.05 | 43 | 1007.6 |
| 20260507212509 | 59 | 17 | 4.0 | 10.0 | 0.00 | 0.06 | 0.05 | 43 | 1007.7 |
| 20260507212013 | 59 | 319 | 3.0 | 9.0 | 0.00 | 0.06 | 0.05 | 44 | 1007.6 |
| 20260507211528 | 59 | 342 | 4.0 | 10.0 | 0.00 | 0.06 | 0.05 | 43 | 1007.6 |
| 20260507211013 | 58 | 313 | 4.0 | 11.0 | 0.00 | 0.06 | 0.05 | 44 | 1007.6 |
| 20260507210514 | 59 | 307 | 4.0 | 12.0 | 0.00 | 0.06 | 0.05 | 42 | 1007.4 |
| 20260507210028 | 60 | 360 | 7.0 | 12.0 | 0.00 | 0.06 | 0.05 | 42 | 1007.4 |
| 20260507205513 | 60 | 325 | 5.0 | 11.0 | 0.00 | 0.06 | 0.05 | 48 | 1007.4 |
| 20260507205010 | 58 | 304 | 3.0 | 12.0 | 0.00 | 0.06 | 0.05 | 44 | 1007.5 |
| 20260507204530 | 58 | 0 | 3.0 | 12.0 | 0.00 | 0.06 | 0.05 | 45 | 1007.4 |
| 20260507204012 | 58 | 313 | 4.0 | 12.0 | 0.00 | 0.06 | 0.05 | 44 | 1007.4 |
| 20260507203516 | 59 | 253 | 2.0 | 12.0 | 0.00 | 0.06 | 0.05 | 43 | 1007.4 |
| 20260507203029 | 59 | 338 | 3.0 | 12.0 | 0.00 | 0.06 | 0.05 | 44 | 1007.4 |
| 20260507202511 | 60 | 327 | 4.0 | 11.0 | 0.00 | 0.06 | 0.05 | 44 | 1007.4 |
| 20260507202011 | 61 | 311 | 4.0 | 11.0 | 0.00 | 0.06 | 0.05 | 42 | 1007.3 |
| 20260507201528 | 61 | 298 | 3.0 | 11.0 | 0.00 | 0.06 | 0.05 | 48 | 1007.3 |
| 20260507201014 | 61 | 315 | 4.0 | 13.0 | 0.00 | 0.06 | 0.05 | 42 | 1007.3 |
| 20260507200512 | 61 | 0 | 3.0 | 14.0 | 0.00 | 0.06 | 0.05 | 44 | 1007.4 |
| 20260507200036 | 61 | 331 | 6.0 | 14.0 | 0.00 | 0.06 | 0.05 | 44 | 1007.5 |
| 20260507195512 | 60 | 335 | 4.0 | 9.0 | 0.00 | 0.07 | 0.05 | 45 | 1007.4 |
| 20260507195011 | 58 | 309 | 2.0 | 13.0 | 0.00 | 0.07 | 0.05 | 43 | 1007.5 |
| 20260507194532 | 58 | 336 | 4.0 | 13.0 | 0.00 | 0.07 | 0.05 | 45 | 1007.6 |
| 20260507194010 | 58 | 309 | 4.0 | 13.0 | 0.00 | 0.07 | 0.05 | 46 | 1007.6 |
| 20260507193510 | 58 | 300 | 2.0 | 9.0 | 0.00 | 0.07 | 0.05 | 44 | 1007.7 |
| 20260507193029 | 58 | 314 | 2.0 | 10.0 | 0.00 | 0.07 | 0.05 | 45 | 1007.8 |
| 20260507192509 | 59 | 306 | 3.0 | 11.0 | 0.00 | 0.07 | 0.05 | 46 | 1007.9 |
| 20260507192012 | 60 | 284 | 4.0 | 11.0 | 0.00 | 0.07 | 0.05 | 44 | 1008.0 |
| 20260507191530 | 61 | 0 | 4.0 | 11.0 | 0.00 | 0.07 | 0.05 | 44 | 1008.0 |
| 20260507191011 | 61 | 313 | 4.0 | 12.0 | 0.00 | 0.07 | 0.05 | 53 | 1008.0 |
| 20260507190512 | 60 | 349 | 5.0 | 15.0 | 0.00 | 0.07 | 0.05 | 47 | 1008.1 |
| 20260507190036 | 60 | 323 | 7.0 | 15.0 | 0.00 | 0.07 | 0.05 | 46 | 1008.3 |
| 20260507185512 | 59 | 46 | 5.0 | 15.0 | 0.00 | 0.08 | 0.05 | 44 | 1008.2 |
| 20260507185011 | 59 | 352 | 3.0 | 15.0 | 0.00 | 0.08 | 0.05 | 46 | 1008.3 |
| 20260507184537 | 60 | 240 | 2.0 | 14.0 | 0.00 | 0.08 | 0.05 | 44 | 1008.2 |
| 20260507184010 | 61 | 342 | 6.0 | 14.0 | 0.00 | 0.08 | 0.05 | 44 | 1008.3 |
| 20260507183513 | 61 | 303 | 4.0 | 11.0 | 0.00 | 0.08 | 0.05 | 53 | 1008.3 |
| 20260507183028 | 61 | 262 | 4.0 | 11.0 | 0.00 | 0.08 | 0.05 | 47 | 1008.2 |
| 20260507182511 | 61 | 309 | 3.0 | 11.0 | 0.00 | 0.08 | 0.05 | 45 | 1008.2 |
| 20260507182012 | 61 | 311 | 4.0 | 11.0 | 0.00 | 0.08 | 0.05 | 49 | 1008.4 |
| 20260507181529 | 61 | 318 | 5.0 | 10.0 | 0.00 | 0.08 | 0.05 | 46 | 1008.5 |
| 20260507181013 | 60 | 319 | 3.0 | 10.0 | 0.00 | 0.08 | 0.05 | 54 | 1008.5 |
| 20260507180511 | 59 | 327 | 3.0 | 10.0 | 0.00 | 0.08 | 0.05 | 47 | 1008.6 |
| 20260507180033 | 59 | 0 | 2.0 | 9.0 | 0.00 | 0.08 | 0.05 | 49 | 1008.6 |
| 20260507175512 | 59 | 352 | 3.0 | 13.0 | 0.00 | 0.15 | 0.05 | 46 | 1008.7 |
| 20260507175012 | 59 | 325 | 7.0 | 13.0 | 0.00 | 0.15 | 0.05 | 47 | 1008.8 |
| 20260507174531 | 58 | 325 | 6.0 | 12.0 | 0.00 | 0.15 | 0.05 | 49 | 1008.8 |
| 20260507174013 | 58 | 333 | 2.0 | 9.0 | 0.00 | 0.15 | 0.05 | 44 | 1008.7 |
| 20260507173510 | 58 | 308 | 3.0 | 11.0 | 0.00 | 0.15 | 0.05 | 43 | 1008.9 |
| 20260507173033 | 60 | 313 | 3.0 | 11.0 | 0.00 | 0.15 | 0.05 | 48 | 1009.1 |
| 20260507172510 | 59 | 209 | 2.0 | 11.0 | 0.00 | 0.15 | 0.05 | 51 | 1009.1 |
| 20260507172014 | 58 | 319 | 5.0 | 11.0 | 0.00 | 0.15 | 0.05 | 48 | 1009.2 |
| 20260507171529 | 58 | 311 | 6.0 | 11.0 | 0.00 | 0.15 | 0.05 | 49 | 1009.4 |
| 20260507171010 | 58 | 335 | 3.0 | 9.0 | 0.00 | 0.15 | 0.05 | 44 | 1009.4 |
| 20260507170517 | 58 | 311 | 2.0 | 9.0 | 0.00 | 0.15 | 0.05 | 46 | 1009.3 |
| 20260507170031 | 58 | 290 | 5.0 | 10.0 | 0.00 | 0.15 | 0.05 | 49 | 1009.5 |
| 20260507165511 | 58 | 0 | 2.0 | 10.0 | 0.00 | 0.18 | 0.05 | 46 | 1009.4 |
| 20260507165011 | 58 | 308 | 5.0 | 11.0 | 0.00 | 0.18 | 0.05 | 54 | 1009.7 |
| 20260507164531 | 58 | 325 | 3.0 | 11.0 | 0.00 | 0.18 | 0.05 | 44 | 1009.6 |
| 20260507164016 | 59 | 306 | 3.0 | 9.0 | 0.00 | 0.18 | 0.05 | 49 | 1009.7 |
| 20260507163513 | 58 | 289 | 4.0 | 9.0 | 0.00 | 0.18 | 0.05 | 48 | 1009.7 |
| 20260507163030 | 58 | 335 | 4.0 | 8.0 | 0.00 | 0.18 | 0.05 | 51 | 1009.6 |
| 20260507162513 | 57 | 310 | 3.0 | 8.0 | 0.00 | 0.18 | 0.05 | 48 | 1009.8 |
| 20260507162012 | 57 | 268 | 3.0 | 12.0 | 0.00 | 0.18 | 0.05 | 49 | 1009.7 |
| 20260507161530 | 57 | 306 | 2.0 | 12.0 | 0.00 | 0.18 | 0.05 | 47 | 1009.8 |
| 20260507161010 | 57 | 338 | 2.0 | 9.0 | 0.00 | 0.18 | 0.05 | 53 | 1009.9 |
| 20260507160514 | 57 | 337 | 3.0 | 9.0 | 0.00 | 0.18 | 0.05 | 48 | 1010.1 |
| 20260507160028 | 57 | 289 | 3.0 | 9.0 | 0.00 | 0.18 | 0.05 | 46 | 1010.0 |
| 20260507155513 | 57 | 0 | 2.0 | 8.0 | 0.00 | 0.18 | 0.05 | 54 | 1010.2 |
| 20260507155013 | 56 | 295 | 2.0 | 11.0 | 0.00 | 0.18 | 0.05 | 50 | 1010.3 |
| 20260507154532 | 56 | 304 | 1.0 | 11.0 | 0.00 | 0.18 | 0.05 | 52 | 1010.4 |
| 20260507154014 | 56 | 314 | 4.0 | 11.0 | 0.00 | 0.18 | 0.05 | 45 | 1010.6 |
| 20260507153511 | 56 | 332 | 4.0 | 9.0 | 0.00 | 0.18 | 0.05 | 48 | 1010.7 |
| 20260507153033 | 56 | 325 | 3.0 | 9.0 | 0.00 | 0.18 | 0.05 | 53 | 1010.5 |
| 20260507152512 | 56 | 267 | 3.0 | 9.0 | 0.00 | 0.18 | 0.05 | 51 | 1010.6 |
| 20260507152014 | 56 | 344 | 3.0 | 9.0 | 0.00 | 0.18 | 0.05 | 52 | 1010.6 |
| 20260507151531 | 56 | 315 | 4.0 | 9.0 | 0.00 | 0.18 | 0.05 | 51 | 1010.6 |
| 20260507151014 | 55 | 308 | 4.0 | 9.0 | 0.00 | 0.18 | 0.05 | 51 | 1010.7 |
| 20260507150514 | 55 | 323 | 3.0 | 9.0 | 0.00 | 0.18 | 0.05 | 53 | 1010.6 |
| 20260507150028 | 55 | 313 | 2.0 | 9.0 | 0.00 | 0.18 | 0.05 | 49 | 1010.7 |
| 20260507145513 | 54 | 309 | 3.0 | 9.0 | 0.00 | 0.18 | 0.05 | 49 | 1010.7 |
| 20260507145015 | 55 | 340 | 3.0 | 11.0 | 0.00 | 0.18 | 0.05 | 48 | 1010.7 |
| 20260507144528 | 55 | 288 | 1.0 | 11.0 | 0.00 | 0.18 | 0.05 | 51 | 1010.6 |
| 20260507144011 | 54 | 337 | 4.0 | 11.0 | 0.00 | 0.18 | 0.05 | 51 | 1010.7 |
| 20260507143516 | 54 | 298 | 2.0 | 7.0 | 0.00 | 0.18 | 0.05 | 51 | 1010.7 |
| 20260507143028 | 55 | 321 | 2.0 | 8.0 | 0.00 | 0.18 | 0.05 | 55 | 1010.7 |
| 20260507142513 | 54 | 313 | 3.0 | 12.0 | 0.00 | 0.18 | 0.05 | 51 | 1010.7 |
| 20260507142014 | 54 | 313 | 3.0 | 12.0 | 0.00 | 0.18 | 0.05 | 50 | 1010.7 |
| 20260507141530 | 54 | 296 | 2.0 | 10.0 | 0.00 | 0.18 | 0.05 | 55 | 1010.8 |
| 20260507141013 | 54 | 312 | 2.0 | 11.0 | 0.00 | 0.18 | 0.05 | 55 | 1010.9 |
| 20260507140515 | 53 | 313 | 2.0 | 11.0 | 0.00 | 0.18 | 0.05 | 55 | 1011.0 |
| 20260507140036 | 53 | 302 | 5.0 | 11.0 | 0.00 | 0.18 | 0.05 | 53 | 1011.1 |
| 20260507135512 | 53 | 317 | 4.0 | 12.0 | 0.00 | 0.18 | 0.05 | 50 | 1011.1 |
| 20260507135011 | 52 | 352 | 4.0 | 12.0 | 0.00 | 0.18 | 0.05 | 51 | 1011.1 |
| 20260507134528 | 52 | 350 | 5.0 | 12.0 | 0.00 | 0.18 | 0.05 | 52 | 1011.1 |
| 20260507134014 | 52 | 5 | 3.0 | 9.0 | 0.00 | 0.18 | 0.05 | 58 | 1011.1 |
| 20260507133511 | 52 | 336 | 4.0 | 13.0 | 0.00 | 0.18 | 0.05 | 56 | 1011.0 |
| 20260507133030 | 52 | 316 | 4.0 | 13.0 | 0.00 | 0.18 | 0.05 | 57 | 1011.1 |
| 20260507132513 | 52 | 315 | 5.0 | 12.0 | 0.00 | 0.18 | 0.05 | 54 | 1011.0 |
| 20260507132013 | 52 | 22 | 4.0 | 10.0 | 0.00 | 0.18 | 0.05 | 58 | 1010.9 |
| 20260507131527 | 52 | 321 | 4.0 | 10.0 | 0.00 | 0.18 | 0.05 | 57 | 1010.9 |
| 20260507131012 | 51 | 340 | 3.0 | 10.0 | 0.00 | 0.18 | 0.05 | 63 | 1010.8 |
| 20260507130511 | 51 | 329 | 4.0 | 10.0 | 0.00 | 0.18 | 0.05 | 56 | 1010.8 |
| 20260507130027 | 51 | 324 | 4.0 | 10.0 | 0.00 | 0.18 | 0.05 | 63 | 1010.7 |
| 20260507125517 | 50 | 323 | 3.0 | 10.0 | 0.00 | 0.18 | 0.05 | 64 | 1010.6 |
| 20260507125011 | 50 | 312 | 4.0 | 10.0 | 0.00 | 0.18 | 0.05 | 64 | 1010.6 |
| 20260507124536 | 50 | 304 | 3.0 | 10.0 | 0.00 | 0.18 | 0.05 | 68 | 1010.6 |
| 20260507124011 | 49 | 309 | 3.0 | 10.0 | 0.00 | 0.18 | 0.05 | 65 | 1010.5 |
| 20260507123514 | 49 | 350 | 4.0 | 10.0 | 0.00 | 0.18 | 0.05 | 65 | 1010.6 |
| 20260507123033 | 49 | 350 | 3.0 | 10.0 | 0.00 | 0.18 | 0.05 | 66 | 1010.6 |
| 20260507122510 | 48 | 322 | 3.0 | 10.0 | 0.00 | 0.18 | 0.05 | 66 | 1010.5 |
| 20260507122011 | 48 | 331 | 2.0 | 10.0 | 0.00 | 0.18 | 0.05 | 68 | 1010.6 |
| 20260507121538 | 48 | 327 | 3.0 | 9.0 | 0.00 | 0.18 | 0.05 | 71 | 1010.6 |
| 20260507121016 | 48 | 323 | 1.0 | 9.0 | 0.00 | 0.18 | 0.05 | 73 | 1010.4 |
| 20260507120511 | 48 | 336 | 2.0 | 9.0 | 0.00 | 0.18 | 0.05 | 72 | 1010.6 |
| 20260507120030 | 48 | 325 | 3.0 | 10.0 | 0.00 | 0.18 | 0.05 | 72 | 1010.6 |